createdAt,value
2018-11-27T00:02:33.261Z,5.79
2018-11-27T00:05:37.994Z,5.78
2018-11-27T00:08:41.535Z,5.76
2018-11-27T00:11:45.102Z,5.70
2018-11-27T00:14:48.601Z,5.68
2018-11-27T00:17:52.073Z,5.68
2018-11-27T00:20:55.567Z,5.65
2018-11-27T00:23:59.185Z,5.57
2018-11-27T00:27:02.705Z,5.56
2018-11-27T00:30:14.636Z,5.63
2018-11-27T00:33:18.146Z,5.67
2018-11-27T00:36:21.757Z,5.66
2018-11-27T00:39:25.306Z,5.67
2018-11-27T00:42:28.894Z,5.64
2018-11-27T00:45:32.505Z,5.63
2018-11-27T00:48:36.003Z,5.64
2018-11-27T00:51:39.588Z,5.60
2018-11-27T00:54:43.221Z,5.53
2018-11-27T00:57:48.100Z,5.56
2018-11-27T01:00:51.705Z,5.59
2018-11-27T01:03:55.291Z,5.63
2018-11-27T01:06:58.764Z,5.61
2018-11-27T01:10:02.277Z,5.49
2018-11-27T01:13:06.534Z,5.38
2018-11-27T01:16:10.145Z,5.38
2018-11-27T01:19:13.596Z,5.40
2018-11-27T01:22:17.244Z,5.48
2018-11-27T01:25:20.798Z,5.51
2018-11-27T01:28:24.493Z,5.55
2018-11-27T01:31:28.112Z,5.45
2018-11-27T01:34:31.747Z,5.40
2018-11-27T01:37:35.205Z,5.43
2018-11-27T01:40:38.723Z,5.41
2018-11-27T01:43:42.292Z,5.35
2018-11-27T01:46:45.751Z,5.30
2018-11-27T01:49:49.341Z,5.25
2018-11-27T01:52:52.919Z,5.28
2018-11-27T01:55:56.434Z,5.30
2018-11-27T01:59:00.025Z,5.18
2018-11-27T02:02:03.555Z,5.18
2018-11-27T02:05:08.121Z,5.24
2018-11-27T02:08:11.725Z,5.25
2018-11-27T02:11:15.242Z,5.27
2018-11-27T02:14:18.684Z,5.28
2018-11-27T02:17:22.409Z,5.28
2018-11-27T02:20:26.150Z,5.20
2018-11-27T02:23:29.637Z,5.19
2018-11-27T02:26:33.273Z,5.08
2018-11-27T02:29:36.760Z,5.15
2018-11-27T02:32:40.323Z,5.08
2018-11-27T02:35:44.124Z,5.13
2018-11-27T02:38:47.573Z,5.13
2018-11-27T02:41:51.145Z,5.10
2018-11-27T02:44:54.747Z,5.06
2018-11-27T02:47:58.397Z,4.96
2018-11-27T02:51:01.866Z,4.99
2018-11-27T02:54:05.840Z,4.95
2018-11-27T02:57:09.509Z,4.93
2018-11-27T03:00:15.111Z,5.01
2018-11-27T03:03:18.716Z,5.01
2018-11-27T03:06:22.176Z,5.00
2018-11-27T03:09:25.599Z,4.99
2018-11-27T03:12:29.081Z,5.02
2018-11-27T03:15:32.714Z,5.05
2018-11-27T03:18:36.138Z,5.02
2018-11-27T03:21:39.629Z,5.01
2018-11-27T03:24:43.130Z,5.03
2018-11-27T03:27:47.420Z,4.99
2018-11-27T03:30:50.915Z,4.86
2018-11-27T03:33:54.473Z,4.89
2018-11-27T03:36:57.972Z,4.97
2018-11-27T03:40:01.473Z,4.92
2018-11-27T03:43:04.992Z,4.83
2018-11-27T03:46:08.659Z,4.85
2018-11-27T03:49:12.190Z,4.78
2018-11-27T03:52:15.658Z,4.80
2018-11-27T03:55:19.212Z,4.73
2018-11-27T03:58:22.698Z,4.75
2018-11-27T04:01:26.177Z,4.82
2018-11-27T04:04:29.615Z,4.82
2018-11-27T04:07:33.101Z,4.85
2018-11-27T04:10:36.685Z,4.78
2018-11-27T04:13:40.200Z,4.73
2018-11-27T04:16:43.704Z,4.69
2018-11-27T04:19:47.215Z,4.73
2018-11-27T04:22:50.751Z,4.72
2018-11-27T04:25:54.345Z,4.66
2018-11-27T04:28:57.930Z,4.69
2018-11-27T04:32:01.509Z,4.75
2018-11-27T04:35:06.670Z,4.73
2018-11-27T04:38:10.158Z,4.75
2018-11-27T04:41:13.535Z,4.74
2018-11-27T04:44:17.091Z,4.60
2018-11-27T04:47:20.490Z,4.55
2018-11-27T04:50:23.959Z,4.60
2018-11-27T04:53:27.383Z,4.64
2018-11-27T04:56:30.716Z,4.65
2018-11-27T04:59:34.177Z,4.65
2018-11-27T05:02:37.641Z,4.64
2018-11-27T05:05:41.312Z,4.65
2018-11-27T05:08:44.924Z,4.65
2018-11-27T05:11:48.559Z,4.61
2018-11-27T05:14:52.203Z,4.47
2018-11-27T05:17:56.804Z,4.50
2018-11-27T05:21:00.393Z,4.57
2018-11-27T05:24:04.079Z,4.58
2018-11-27T05:27:07.588Z,4.61
2018-11-27T05:30:15.473Z,4.60
2018-11-27T05:33:19.061Z,4.53
2018-11-27T05:36:22.934Z,4.53
2018-11-27T05:39:26.736Z,4.58
2018-11-27T05:42:30.339Z,4.70
2018-11-27T05:45:34.029Z,4.79
2018-11-27T05:48:37.577Z,4.74
2018-11-27T05:51:41.071Z,4.84
2018-11-27T05:54:46.697Z,4.88
2018-11-27T05:57:51.940Z,4.85
2018-11-27T06:00:55.715Z,4.88
2018-11-27T06:03:59.271Z,4.87
2018-11-27T06:07:02.779Z,5.00
2018-11-27T06:10:07.363Z,5.06
2018-11-27T06:13:10.885Z,5.00
2018-11-27T06:16:14.523Z,4.98
2018-11-27T06:19:18.101Z,5.17
2018-11-27T06:22:21.688Z,5.20
2018-11-27T06:25:26.706Z,5.21
2018-11-27T06:28:30.156Z,5.26
2018-11-27T06:31:33.763Z,5.27
2018-11-27T06:34:37.340Z,5.29
2018-11-27T06:37:40.807Z,5.29
2018-11-27T06:40:44.253Z,5.20
2018-11-27T06:43:47.905Z,5.19
2018-11-27T06:46:51.365Z,5.15
2018-11-27T06:49:54.976Z,5.11
2018-11-27T06:52:58.591Z,4.97
2018-11-27T06:56:02.209Z,4.99
2018-11-27T06:59:06.582Z,5.03
2018-11-27T07:02:10.238Z,5.07
2018-11-27T07:05:14.490Z,5.04
2018-11-27T07:08:17.949Z,5.03
2018-11-27T07:11:21.525Z,5.07
2018-11-27T07:14:24.947Z,5.11
2018-11-27T07:17:28.450Z,5.16
2018-11-27T07:20:31.842Z,5.17
2018-11-27T07:23:35.252Z,5.15
2018-11-27T07:26:38.761Z,5.22
2018-11-27T07:29:42.364Z,5.25
2018-11-27T07:32:45.995Z,5.27
2018-11-27T07:35:49.386Z,5.33
2018-11-27T07:38:53.068Z,5.38
2018-11-27T07:41:56.607Z,5.36
2018-11-27T07:45:00.092Z,5.27
2018-11-27T07:48:04.747Z,5.28
2018-11-27T07:51:08.368Z,5.28
2018-11-27T07:54:12.010Z,5.28
2018-11-27T07:57:15.528Z,5.37
2018-11-27T08:00:24.566Z,5.31
2018-11-27T08:03:28.072Z,5.26
2018-11-27T08:06:31.831Z,5.18
2018-11-27T08:09:35.321Z,5.17
2018-11-27T08:12:38.799Z,5.11
2018-11-27T08:15:42.422Z,5.10
2018-11-27T08:18:45.873Z,5.02
2018-11-27T08:21:49.294Z,4.99
2018-11-27T08:24:52.756Z,4.96
2018-11-27T08:27:56.228Z,4.93
2018-11-27T08:30:59.642Z,5.00
2018-11-27T08:34:03.092Z,4.97
2018-11-27T08:37:06.677Z,4.89
2018-11-27T08:40:11.567Z,4.86
2018-11-27T08:43:15.136Z,4.85
2018-11-27T08:46:18.686Z,4.88
2018-11-27T08:49:22.233Z,4.91
2018-11-27T08:52:25.959Z,4.93
2018-11-27T08:55:46.131Z,4.94
2018-11-27T08:58:49.595Z,5.01
2018-11-27T09:01:53.042Z,5.03
2018-11-27T09:04:56.444Z,5.05
2018-11-27T09:07:59.906Z,5.04
2018-11-27T09:11:06.313Z,4.99
2018-11-27T09:14:09.661Z,5.04
2018-11-27T09:17:13.090Z,5.13
2018-11-27T09:20:16.504Z,5.15
2018-11-27T09:23:19.983Z,5.13
2018-11-27T09:26:23.381Z,5.10
2018-11-27T09:29:26.810Z,5.10
2018-11-27T09:32:30.213Z,5.10
2018-11-27T09:35:33.873Z,5.17
2018-11-27T09:38:37.254Z,5.22
2018-11-27T09:41:40.758Z,5.18
2018-11-27T09:44:44.243Z,5.18
2018-11-27T09:47:52.749Z,5.19
2018-11-27T09:50:56.286Z,5.21
2018-11-27T09:54:00.794Z,5.30
2018-11-27T09:57:04.217Z,5.43
2018-11-27T10:00:22.347Z,5.53
2018-11-27T10:03:26.764Z,5.45
2018-11-27T10:06:32.363Z,5.42
2018-11-27T10:09:35.837Z,5.43
2018-11-27T10:12:39.366Z,5.43
2018-11-27T10:15:42.823Z,5.43
2018-11-27T10:18:47.410Z,5.47
2018-11-27T10:21:52.034Z,5.53
2018-11-27T10:24:55.547Z,5.51
2018-11-27T10:27:59.019Z,5.53
2018-11-27T10:31:02.659Z,5.61
2018-11-27T10:34:06.495Z,5.59
2018-11-27T10:37:10.015Z,5.55
2018-11-27T10:40:14.590Z,5.58
2018-11-27T10:43:19.992Z,5.67
2018-11-27T10:46:21.599Z,5.68
2018-11-27T10:49:25.265Z,5.64
2018-11-27T10:52:28.866Z,5.64
2018-11-27T10:55:32.512Z,5.68
2018-11-27T10:58:36.056Z,5.70
2018-11-27T11:01:44.795Z,5.77
2018-11-27T11:04:48.465Z,5.83
2018-11-27T11:07:52.460Z,5.77
2018-11-27T11:10:56.045Z,5.87
2018-11-27T11:13:59.748Z,5.84
2018-11-27T11:17:03.265Z,5.79
2018-11-27T11:20:07.690Z,5.81
2018-11-27T11:23:11.255Z,5.88
2018-11-27T11:26:14.781Z,5.87
2018-11-27T11:29:18.395Z,5.95
2018-11-27T11:32:21.978Z,5.87
2018-11-27T11:35:25.405Z,5.94
2018-11-27T11:38:28.882Z,5.93
2018-11-27T11:41:32.385Z,5.87
2018-11-27T11:44:35.895Z,5.92
2018-11-27T11:47:39.536Z,5.82
2018-11-27T11:50:43.104Z,5.75
2018-11-27T11:53:46.782Z,5.77
2018-11-27T11:56:50.344Z,5.79
2018-11-27T11:59:53.938Z,5.87
2018-11-27T12:02:57.676Z,5.88
2018-11-27T12:06:01.141Z,5.85
2018-11-27T12:09:06.137Z,5.90
2018-11-27T12:12:09.505Z,5.98
2018-11-27T12:15:18.202Z,5.86
2018-11-27T12:18:21.669Z,5.87
2018-11-27T12:21:25.107Z,5.82
2018-11-27T12:24:28.762Z,5.87
2018-11-27T12:27:32.443Z,5.74
2018-11-27T12:30:35.965Z,5.64
2018-11-27T12:33:39.569Z,5.64
2018-11-27T12:36:43.170Z,5.68
2018-11-27T12:39:46.758Z,5.71
2018-11-27T12:42:50.505Z,5.81
2018-11-27T12:45:54.033Z,5.70
2018-11-27T12:48:57.537Z,5.70
2018-11-27T12:52:01.019Z,5.69
2018-11-27T12:55:05.126Z,5.76
2018-11-27T12:58:08.682Z,5.63
2018-11-27T13:01:12.286Z,5.67
2018-11-27T13:04:15.981Z,5.64
2018-11-27T13:07:19.401Z,5.62
2018-11-27T13:10:22.871Z,5.62
2018-11-27T13:13:26.448Z,5.59
2018-11-27T13:16:29.967Z,5.57
2018-11-27T13:19:33.519Z,5.55
2018-11-27T13:22:37.068Z,5.54
2018-11-27T13:25:40.638Z,5.59
2018-11-27T13:28:44.272Z,5.57
2018-11-27T13:31:47.853Z,5.59
2018-11-27T13:34:52.625Z,5.61
2018-11-27T13:37:54.993Z,5.56
2018-11-27T13:40:58.524Z,5.56
2018-11-27T13:44:02.123Z,5.59
2018-11-27T13:47:05.831Z,5.64
2018-11-27T13:50:11.174Z,5.59
2018-11-27T13:53:14.775Z,5.55
2018-11-27T13:56:18.296Z,5.61
2018-11-27T13:59:21.958Z,5.54
2018-11-27T14:02:25.479Z,5.38
2018-11-27T14:05:29.019Z,5.35
2018-11-27T14:08:32.547Z,5.28
2018-11-27T14:11:36.103Z,5.16
2018-11-27T14:14:39.911Z,5.10
2018-11-27T14:17:43.528Z,5.07
2018-11-27T14:20:47.115Z,5.08
2018-11-27T14:23:50.648Z,5.02
2018-11-27T14:26:54.325Z,4.95
2018-11-27T14:29:57.907Z,4.76
2018-11-27T14:33:01.550Z,4.69
2018-11-27T14:36:06.060Z,4.63
2018-11-27T14:39:10.454Z,4.70
2018-11-27T14:42:13.993Z,4.76
2018-11-27T14:45:21.909Z,4.83
2018-11-27T14:48:25.395Z,4.94
2018-11-27T14:51:29.833Z,4.97
2018-11-27T14:54:33.236Z,4.99
2018-11-27T14:57:36.715Z,5.05
2018-11-27T15:00:40.236Z,5.15
2018-11-27T15:03:43.938Z,5.14
2018-11-27T15:06:47.925Z,5.02
2018-11-27T15:09:52.667Z,4.85
2018-11-27T15:12:56.481Z,4.75
2018-11-27T15:16:00.412Z,4.78
2018-11-27T15:19:03.962Z,4.83
2018-11-27T15:22:07.775Z,4.76
2018-11-27T15:25:11.583Z,4.80
2018-11-27T15:28:15.615Z,4.86
2018-11-27T15:31:19.216Z,4.89
2018-11-27T15:34:23.042Z,4.91
2018-11-27T15:37:26.763Z,4.90
2018-11-27T15:40:30.762Z,4.85
2018-11-27T15:43:34.432Z,4.89
2018-11-27T15:46:37.985Z,4.82
2018-11-27T15:49:41.663Z,4.79
2018-11-27T15:52:45.405Z,4.79
2018-11-27T15:55:50.912Z,4.80
2018-11-27T15:58:55.635Z,4.80
2018-11-27T16:01:59.305Z,4.75
2018-11-27T16:05:03.968Z,4.74
2018-11-27T16:08:08.450Z,4.81
2018-11-27T16:11:12.108Z,4.82
2018-11-27T16:14:15.809Z,4.76
2018-11-27T16:17:19.413Z,4.76
2018-11-27T16:20:23.053Z,4.83
2018-11-27T16:23:27.031Z,4.93
2018-11-27T16:26:30.636Z,4.91
2018-11-27T16:29:34.199Z,4.90
2018-11-27T16:32:37.764Z,4.90
2018-11-27T16:35:41.408Z,4.88
2018-11-27T16:38:44.933Z,4.77
2018-11-27T16:41:48.463Z,4.73
2018-11-27T16:44:51.981Z,4.72
2018-11-27T16:47:55.629Z,4.67
2018-11-27T16:50:59.209Z,4.68
2018-11-27T16:54:02.825Z,4.78
2018-11-27T16:57:06.387Z,4.78
2018-11-27T17:00:18.413Z,4.73
2018-11-27T17:03:22.038Z,4.63
2018-11-27T17:06:25.619Z,4.59
2018-11-27T17:09:29.113Z,4.57
2018-11-27T17:12:32.531Z,4.56
2018-11-27T17:15:36.294Z,4.64
2018-11-27T17:18:40.376Z,4.69
2018-11-27T17:21:43.936Z,4.62
2018-11-27T17:24:47.309Z,4.59
2018-11-27T17:27:51.219Z,4.63
2018-11-27T17:30:58.893Z,4.71
2018-11-27T17:34:07.626Z,4.73
2018-11-27T17:37:11.223Z,4.72
2018-11-27T17:40:14.835Z,4.71
2018-11-27T17:43:18.328Z,4.77
2018-11-27T17:46:22.866Z,4.78
2018-11-27T17:49:26.414Z,4.97
2018-11-27T17:52:31.788Z,5.05
2018-11-27T17:55:35.315Z,5.02
2018-11-27T17:58:39.002Z,5.07
2018-11-27T18:01:42.687Z,5.00
2018-11-27T18:04:46.234Z,5.05
2018-11-27T18:07:49.799Z,5.19
2018-11-27T18:10:53.439Z,5.12
2018-11-27T18:13:57.112Z,5.06
2018-11-27T18:17:00.649Z,5.11
2018-11-27T18:20:04.428Z,5.19
2018-11-27T18:23:07.910Z,5.10
2018-11-27T18:26:11.488Z,5.07
2018-11-27T18:29:15.100Z,4.98
2018-11-27T18:32:18.714Z,5.00
2018-11-27T18:35:24.223Z,5.06
2018-11-27T18:38:27.785Z,5.09
2018-11-27T18:41:31.341Z,5.01
2018-11-27T18:44:35.988Z,4.99
2018-11-27T18:47:40.000Z,4.92
2018-11-27T18:50:43.562Z,4.93
2018-11-27T18:53:47.090Z,5.06
2018-11-27T18:56:50.624Z,5.03
2018-11-27T18:59:54.214Z,5.02
2018-11-27T19:02:57.781Z,4.98
2018-11-27T19:06:01.278Z,4.95
2018-11-27T19:09:08.420Z,4.89
2018-11-27T19:12:12.011Z,4.88
2018-11-27T19:15:31.902Z,4.92
2018-11-27T19:18:35.447Z,4.95
2018-11-27T19:21:38.996Z,4.93
2018-11-27T19:24:42.515Z,4.96
2018-11-27T19:27:46.047Z,4.96
2018-11-27T19:30:50.068Z,4.90
2018-11-27T19:33:53.540Z,5.03
2018-11-27T19:36:57.040Z,5.21
2018-11-27T19:40:00.477Z,5.25
2018-11-27T19:43:03.976Z,5.21
2018-11-27T19:46:07.449Z,5.21
2018-11-27T19:49:12.015Z,5.11
2018-11-27T19:52:15.498Z,5.08
2018-11-27T19:55:20.274Z,4.94
2018-11-27T19:58:23.672Z,4.99
2018-11-27T20:01:27.239Z,5.02
2018-11-27T20:04:30.740Z,5.03
2018-11-27T20:07:34.362Z,5.05
2018-11-27T20:10:37.909Z,5.02
2018-11-27T20:13:41.456Z,5.01
2018-11-27T20:16:44.923Z,5.01
2018-11-27T20:19:48.672Z,4.89
2018-11-27T20:22:52.624Z,4.89
2018-11-27T20:25:56.232Z,4.82
2018-11-27T20:28:59.771Z,4.76
2018-11-27T20:32:03.258Z,4.70
2018-11-27T20:35:08.742Z,4.70
2018-11-27T20:38:12.443Z,4.65
2018-11-27T20:41:15.981Z,4.63
2018-11-27T20:44:19.507Z,4.74
2018-11-27T20:47:23.043Z,4.64
2018-11-27T20:50:26.713Z,4.69
2018-11-27T20:53:30.177Z,4.75
2018-11-27T20:56:33.775Z,4.74
2018-11-27T20:59:37.446Z,4.76
2018-11-27T21:02:41.232Z,4.80
2018-11-27T21:05:44.776Z,4.73
2018-11-27T21:08:48.543Z,4.77
2018-11-27T21:11:52.091Z,4.84
2018-11-27T21:15:07.727Z,4.77
2018-11-27T21:18:15.396Z,4.61
2018-11-27T21:21:19.077Z,4.63
2018-11-27T21:24:22.655Z,4.60
2018-11-27T21:27:27.360Z,4.52
2018-11-27T21:30:31.967Z,4.49
2018-11-27T21:33:35.488Z,4.40
2018-11-27T21:36:39.159Z,4.36
2018-11-27T21:39:43.829Z,4.50
2018-11-27T21:42:47.373Z,4.52
2018-11-27T21:45:51.094Z,4.56
2018-11-27T21:48:54.740Z,4.60
2018-11-27T21:51:58.410Z,4.54
2018-11-27T21:55:01.969Z,4.55
2018-11-27T21:58:06.087Z,4.56
2018-11-27T22:01:09.830Z,4.55
2018-11-27T22:04:13.714Z,4.51
2018-11-27T22:07:17.252Z,4.49
2018-11-27T22:10:22.993Z,4.45
2018-11-27T22:13:26.466Z,4.35
2018-11-27T22:16:30.033Z,4.34
2018-11-27T22:19:33.830Z,4.37
2018-11-27T22:22:37.475Z,4.42
2018-11-27T22:25:41.552Z,4.49
2018-11-27T22:28:45.165Z,4.45
2018-11-27T22:31:48.748Z,4.45
2018-11-27T22:34:52.381Z,4.41
2018-11-27T22:37:55.992Z,4.39
2018-11-27T22:40:59.556Z,4.35
2018-11-27T22:44:03.150Z,4.35
2018-11-27T22:47:06.662Z,4.33
2018-11-27T22:50:12.579Z,4.35
2018-11-27T22:53:16.196Z,4.38
2018-11-27T22:56:19.739Z,4.40
2018-11-27T22:59:23.193Z,4.42
2018-11-27T23:02:26.767Z,4.37
2018-11-27T23:05:30.286Z,4.40
2018-11-27T23:08:33.855Z,4.46
2018-11-27T23:11:37.362Z,4.53
2018-11-27T23:14:40.864Z,4.61
2018-11-27T23:17:44.516Z,4.62
2018-11-27T23:20:48.168Z,4.55
2018-11-27T23:23:51.806Z,4.51
2018-11-27T23:26:55.438Z,4.43
2018-11-27T23:29:59.030Z,4.42
2018-11-27T23:33:02.623Z,4.41
2018-11-27T23:36:06.683Z,4.47
2018-11-27T23:39:10.175Z,4.51
2018-11-27T23:42:13.737Z,4.57
2018-11-27T23:45:20.674Z,4.62
2018-11-27T23:48:25.193Z,4.70
2018-11-27T23:51:28.767Z,4.72
2018-11-27T23:54:32.291Z,4.71
2018-11-27T23:57:36.283Z,4.72
